createdAt,value
2018-05-26T00:02:20.075Z,6.73
2018-05-26T00:04:45.981Z,5.47
2018-05-26T00:07:11.923Z,6.77
2018-05-26T00:09:37.830Z,7.13
2018-05-26T00:12:03.802Z,7.60
2018-05-26T00:14:29.759Z,6.63
2018-05-26T00:16:55.709Z,6.43
2018-05-26T00:19:21.622Z,6.10
2018-05-26T00:21:47.543Z,6.60
2018-05-26T00:24:13.500Z,5.30
2018-05-26T00:26:39.417Z,6.27
2018-05-26T00:29:05.341Z,5.87
2018-05-26T00:31:31.241Z,7.07
2018-05-26T00:33:57.168Z,6.67
2018-05-26T00:36:23.109Z,5.80
2018-05-26T00:38:49.051Z,6.77
2018-05-26T00:41:14.993Z,6.80
2018-05-26T00:43:40.886Z,6.63
2018-05-26T00:46:07.666Z,6.00
2018-05-26T00:48:33.591Z,6.23
2018-05-26T00:51:02.572Z,5.80
2018-05-26T00:53:28.538Z,5.60
2018-05-26T00:55:57.743Z,6.53
2018-05-26T00:58:23.663Z,6.37
2018-05-26T01:00:49.607Z,4.43
2018-05-26T01:03:15.589Z,5.50
2018-05-26T01:05:41.565Z,5.03
2018-05-26T01:08:07.990Z,7.20
2018-05-26T01:10:33.989Z,6.43
2018-05-26T01:13:02.891Z,6.27
2018-05-26T01:15:28.815Z,5.90
2018-05-26T01:17:57.627Z,6.10
2018-05-26T01:20:23.642Z,6.00
2018-05-26T01:22:53.509Z,5.07
2018-05-26T01:25:19.439Z,5.60
2018-05-26T01:27:48.679Z,4.83
2018-05-26T01:30:14.670Z,6.10
2018-05-26T01:32:42.066Z,5.90
2018-05-26T01:35:08.001Z,5.40
2018-05-26T01:37:33.904Z,6.43
2018-05-26T01:39:59.809Z,5.83
2018-05-26T01:42:25.717Z,5.57
2018-05-26T01:44:53.588Z,6.37
2018-05-26T01:47:19.526Z,6.90
2018-05-26T01:49:48.989Z,6.63
2018-05-26T01:52:14.909Z,5.80
2018-05-26T01:54:42.902Z,7.40
2018-05-26T01:57:08.866Z,6.10
2018-05-26T01:59:37.753Z,6.27
2018-05-26T02:02:03.680Z,7.00
2018-05-26T02:04:33.120Z,5.87
2018-05-26T02:06:59.068Z,6.63
2018-05-26T02:09:28.850Z,6.43
2018-05-26T02:11:54.759Z,6.80
2018-05-26T02:14:20.746Z,7.60
2018-05-26T02:16:46.726Z,6.67
2018-05-26T02:19:12.626Z,6.50
2018-05-26T02:21:38.697Z,8.63
2018-05-26T02:24:04.637Z,7.53
2018-05-26T02:26:33.406Z,7.07
2018-05-26T02:28:59.347Z,8.00
2018-05-26T02:31:28.703Z,6.53
2018-05-26T02:33:54.625Z,4.70
2018-05-26T02:36:24.033Z,4.40
2018-05-26T02:38:50.006Z,5.20
2018-05-26T02:41:17.949Z,4.63
2018-05-26T02:43:43.953Z,5.27
2018-05-26T02:46:12.680Z,5.63
2018-05-26T02:48:38.651Z,5.03
2018-05-26T02:51:04.672Z,6.10
2018-05-26T02:53:30.566Z,6.33
2018-05-26T02:55:56.534Z,5.93
2018-05-26T02:58:25.820Z,5.73
2018-05-26T03:00:51.779Z,6.60
2018-05-26T03:03:19.076Z,5.30
2018-05-26T03:05:51.121Z,5.80
2018-05-26T03:08:23.312Z,6.27
2018-05-26T03:10:55.404Z,6.70
2018-05-26T03:13:27.549Z,6.47
2018-05-26T03:29:15.942Z,6.27
2018-05-26T03:31:41.899Z,5.90
2018-05-26T03:34:07.839Z,6.33
2018-05-26T03:36:33.732Z,5.87
2018-05-26T03:38:59.704Z,5.60
2018-05-26T03:41:25.618Z,5.93
2018-05-26T03:43:51.514Z,5.37
2018-05-26T03:46:17.428Z,5.77
2018-05-26T03:48:43.482Z,5.70
2018-05-26T03:51:09.354Z,6.03
2018-05-26T03:53:35.270Z,6.20
2018-05-26T03:56:13.502Z,6.60
2018-05-26T03:58:51.906Z,6.30
2018-05-26T04:01:17.825Z,6.50
2018-05-26T04:03:43.723Z,5.80
2018-05-26T04:06:09.690Z,6.43
2018-05-26T04:08:35.613Z,7.23
2018-05-26T04:11:01.536Z,7.20
2018-05-26T04:13:27.437Z,7.27
2018-05-26T04:15:53.378Z,7.27
2018-05-26T04:18:19.290Z,8.17
2018-05-26T04:20:45.210Z,6.20
2018-05-26T04:23:11.120Z,5.10
2018-05-26T04:25:37.064Z,5.23
2018-05-26T04:28:03.001Z,5.30
2018-05-26T04:30:28.935Z,5.73
2018-05-26T04:32:54.899Z,6.50
2018-05-26T04:35:20.882Z,6.63
2018-05-26T04:37:46.824Z,5.53
2018-05-26T04:40:12.719Z,4.87
2018-05-26T04:42:38.653Z,6.50
2018-05-26T04:45:04.582Z,6.27
2018-05-26T04:47:30.585Z,5.53
2018-05-26T04:49:56.572Z,5.33
2018-05-26T04:52:23.641Z,5.40
2018-05-26T04:54:49.573Z,5.20
2018-05-26T04:57:18.401Z,5.53
2018-05-26T04:59:44.319Z,6.77
2018-05-26T05:02:10.302Z,5.40
2018-05-26T05:04:36.202Z,6.47
2018-05-26T05:07:02.103Z,6.70
2018-05-26T05:09:31.788Z,7.00
2018-05-26T05:11:57.945Z,5.73
2018-05-26T05:14:24.743Z,6.10
2018-05-26T05:16:50.713Z,6.03
2018-05-26T05:19:19.557Z,6.00
2018-05-26T05:21:45.516Z,6.10
2018-05-26T05:24:14.884Z,5.83
2018-05-26T05:26:40.831Z,5.07
2018-05-26T05:29:10.117Z,6.60
2018-05-26T05:31:36.029Z,7.53
2018-05-26T05:34:05.501Z,6.17
2018-05-26T05:36:31.388Z,5.80
2018-05-26T05:38:57.270Z,5.63
2018-05-26T05:41:23.185Z,6.97
2018-05-26T05:43:49.146Z,7.50
2018-05-26T05:46:15.526Z,6.33
2018-05-26T05:48:41.431Z,6.03
2018-05-26T05:51:10.717Z,6.03
2018-05-26T05:53:36.629Z,7.13
2018-05-26T05:56:04.919Z,6.60
2018-05-26T05:58:30.845Z,7.07
2018-05-26T06:01:00.246Z,6.60
2018-05-26T06:03:26.136Z,6.30
2018-05-26T06:05:54.575Z,7.40
2018-05-26T06:08:20.516Z,6.10
2018-05-26T06:10:49.599Z,8.37
2018-05-26T06:13:15.507Z,7.93
2018-05-26T06:15:41.457Z,7.73
2018-05-26T06:18:07.423Z,7.47
2018-05-26T06:20:33.372Z,8.50
2018-05-26T06:23:02.383Z,8.30
2018-05-26T06:25:28.321Z,8.30
2018-05-26T06:27:55.499Z,7.90
2018-05-26T06:30:21.437Z,8.03
2018-05-26T06:32:50.646Z,8.60
2018-05-26T06:35:16.611Z,9.37
2018-05-26T06:37:45.944Z,8.10
2018-05-26T06:40:11.853Z,7.93
2018-05-26T06:42:41.412Z,8.57
2018-05-26T06:45:07.337Z,7.60
2018-05-26T06:47:34.416Z,7.20
2018-05-26T06:50:00.354Z,6.73
2018-05-26T06:52:26.228Z,8.83
2018-05-26T06:54:52.121Z,6.83
2018-05-26T06:57:18.050Z,5.27
2018-05-26T06:59:46.372Z,7.10
2018-05-26T07:02:12.308Z,6.90
2018-05-26T07:04:41.585Z,6.87
2018-05-26T07:07:07.526Z,8.13
2018-05-26T07:09:37.204Z,7.80
2018-05-26T07:12:03.098Z,6.90
2018-05-26T07:14:30.346Z,6.03
2018-05-26T07:16:56.290Z,5.30
2018-05-26T07:19:25.629Z,5.80
2018-05-26T07:21:51.519Z,4.63
2018-05-26T07:24:20.839Z,5.60
2018-05-26T07:26:46.796Z,5.57
2018-05-26T07:29:12.730Z,4.83
2018-05-26T07:31:38.764Z,4.57
2018-05-26T07:34:04.694Z,4.43
2018-05-26T07:36:31.470Z,5.17
2018-05-26T07:38:57.437Z,4.73
2018-05-26T07:41:26.689Z,4.30
2018-05-26T07:43:52.639Z,4.43
2018-05-26T07:46:20.940Z,5.53
2018-05-26T07:48:46.889Z,5.10
2018-05-26T07:51:16.257Z,4.80
2018-05-26T07:53:42.169Z,4.50
2018-05-26T07:56:11.379Z,5.10
2018-05-26T07:58:37.375Z,5.40
2018-05-26T08:01:06.903Z,5.10
2018-05-26T08:03:32.775Z,6.27
2018-05-26T08:05:58.727Z,5.43
2018-05-26T08:08:24.639Z,6.60
2018-05-26T08:10:50.640Z,5.73
2018-05-26T08:13:16.530Z,4.40
2018-05-26T08:15:42.441Z,5.37
2018-05-26T08:18:11.672Z,7.90
2018-05-26T08:20:37.613Z,13.83
2018-05-26T08:23:07.129Z,4.27
2018-05-26T08:25:33.097Z,4.70
2018-05-26T08:28:01.250Z,4.00
2018-05-26T08:30:27.159Z,3.90
2018-05-26T08:32:56.726Z,4.53
2018-05-26T08:35:22.617Z,4.33
2018-05-26T08:37:52.089Z,3.40
2018-05-26T08:40:18.040Z,3.97
2018-05-26T08:42:44.005Z,4.03
2018-05-26T08:45:09.958Z,3.83
2018-05-26T08:47:35.884Z,4.10
2018-05-26T08:50:01.857Z,4.40
2018-05-26T08:52:27.874Z,4.43
2018-05-26T08:54:56.904Z,4.90
2018-05-26T08:57:22.762Z,4.60
2018-05-26T08:59:51.247Z,4.20
2018-05-26T09:02:17.209Z,3.30
2018-05-26T09:04:46.677Z,3.67
2018-05-26T09:07:12.614Z,3.33
2018-05-26T09:09:42.067Z,3.57
2018-05-26T09:12:07.975Z,3.10
2018-05-26T09:14:37.191Z,4.67
2018-05-26T09:17:03.162Z,3.60
2018-05-26T09:19:29.099Z,3.40
2018-05-26T09:21:55.013Z,5.03
2018-05-26T09:24:20.966Z,3.37
2018-05-26T09:26:48.143Z,3.83
2018-05-26T09:29:14.055Z,4.07
2018-05-26T09:31:41.873Z,3.47
2018-05-26T09:34:07.797Z,3.40
2018-05-26T09:36:37.067Z,3.17
2018-05-26T09:39:03.053Z,5.40
2018-05-26T09:41:32.635Z,4.30
2018-05-26T09:43:58.648Z,3.20
2018-05-26T09:46:27.833Z,3.20
2018-05-26T09:48:53.740Z,4.30
2018-05-26T09:51:22.743Z,3.47
2018-05-26T09:53:50.167Z,4.50
2018-05-26T09:56:16.123Z,3.50
2018-05-26T09:58:42.054Z,4.63
2018-05-26T10:01:07.974Z,5.20
2018-05-26T10:03:34.183Z,3.57
2018-05-26T10:06:00.099Z,4.60
2018-05-26T10:08:27.539Z,4.27
2018-05-26T10:10:53.464Z,4.07
2018-05-26T10:13:22.464Z,4.53
2018-05-26T10:15:48.400Z,4.47
2018-05-26T10:18:17.573Z,5.40
2018-05-26T10:20:43.527Z,5.50
2018-05-26T10:23:11.371Z,4.90
2018-05-26T10:25:37.310Z,5.77
2018-05-26T10:28:06.237Z,4.30
2018-05-26T10:30:32.194Z,4.33
2018-05-26T10:32:58.097Z,3.73
2018-05-26T10:35:23.991Z,4.60
2018-05-26T10:37:49.894Z,4.90
2018-05-26T10:40:19.476Z,3.63
2018-05-26T10:42:45.418Z,4.13
2018-05-26T10:45:12.713Z,4.53
2018-05-26T10:47:38.669Z,3.40
2018-05-26T10:50:07.726Z,4.13
2018-05-26T10:52:33.652Z,4.10
2018-05-26T10:55:02.707Z,3.43
2018-05-26T10:57:28.606Z,3.90
2018-05-26T10:59:57.948Z,3.40
2018-05-26T11:02:23.859Z,30.00
2018-05-26T11:04:53.021Z,4.90
2018-05-26T11:07:18.985Z,3.30
2018-05-26T11:09:50.923Z,3.07
2018-05-26T11:12:17.430Z,3.90
2018-05-26T11:14:44.082Z,3.53
2018-05-26T11:17:10.142Z,4.10
2018-05-26T11:19:36.119Z,3.47
2018-05-26T11:22:02.090Z,4.07
2018-05-26T11:24:28.121Z,3.70
2018-05-26T11:26:54.072Z,3.20
2018-05-26T11:29:20.064Z,3.30
2018-05-26T11:31:47.425Z,2.70
2018-05-26T11:34:13.380Z,3.60
2018-05-26T11:36:42.643Z,3.57
2018-05-26T11:39:16.197Z,3.33
2018-05-26T11:41:42.998Z,3.23
2018-05-26T11:44:10.032Z,2.80
2018-05-26T11:46:37.463Z,3.27
2018-05-26T11:49:03.478Z,2.80
2018-05-26T11:51:30.979Z,4.60
2018-05-26T11:53:56.962Z,3.17
2018-05-26T11:56:22.904Z,2.80
2018-05-26T11:58:48.837Z,2.80
2018-05-26T12:01:14.775Z,2.30
2018-05-26T12:03:40.726Z,2.50
2018-05-26T12:06:10.200Z,2.30
2018-05-26T12:08:36.159Z,2.73
2018-05-26T12:11:02.223Z,3.40
2018-05-26T12:13:28.213Z,2.37
2018-05-26T12:15:54.122Z,2.50
2018-05-26T12:18:23.229Z,2.30
2018-05-26T12:20:49.154Z,2.87
2018-05-26T12:23:15.180Z,2.50
2018-05-26T12:25:41.163Z,2.80
2018-05-26T12:28:07.066Z,2.67
2018-05-26T12:30:34.376Z,2.83
2018-05-26T12:33:00.317Z,2.57
2018-05-26T12:35:30.595Z,1.80
2018-05-26T12:38:03.132Z,2.03
2018-05-26T12:40:29.664Z,2.63
2018-05-26T12:42:55.617Z,2.90
2018-05-26T12:45:21.609Z,3.07
2018-05-26T12:47:47.802Z,2.43
2018-05-26T12:50:13.781Z,2.63
2018-05-26T12:52:39.703Z,2.10
2018-05-26T12:55:07.470Z,2.13
2018-05-26T12:57:33.406Z,2.30
2018-05-26T12:59:59.331Z,2.47
2018-05-26T13:02:25.267Z,3.00
2018-05-26T13:04:51.266Z,2.30
2018-05-26T13:07:20.704Z,2.73
2018-05-26T13:09:46.646Z,2.20
2018-05-26T13:12:14.709Z,2.10
2018-05-26T13:14:40.934Z,1.93
2018-05-26T13:17:10.460Z,2.00
2018-05-26T13:19:36.568Z,2.40
2018-05-26T13:22:03.323Z,1.87
2018-05-26T13:24:29.232Z,2.03
2018-05-26T13:26:58.095Z,2.27
2018-05-26T13:29:24.037Z,2.03
2018-05-26T13:31:53.342Z,2.20
2018-05-26T13:34:19.241Z,1.93
2018-05-26T13:36:45.212Z,1.73
2018-05-26T13:39:11.124Z,1.70
2018-05-26T13:41:37.052Z,2.37
2018-05-26T13:44:06.518Z,1.73
2018-05-26T13:46:32.488Z,12.67
2018-05-26T13:48:59.055Z,3.40
2018-05-26T13:51:25.040Z,2.43
2018-05-26T13:53:53.800Z,1.83
2018-05-26T13:56:19.757Z,1.87
2018-05-26T13:58:48.453Z,2.10
2018-05-26T14:01:14.406Z,2.00
2018-05-26T14:03:43.684Z,1.50
2018-05-26T14:06:09.559Z,1.90
2018-05-26T14:08:38.922Z,1.83
2018-05-26T14:11:04.837Z,2.00
2018-05-26T14:13:30.849Z,1.80
2018-05-26T14:15:56.829Z,2.00
2018-05-26T14:18:22.731Z,1.97
2018-05-26T14:20:50.437Z,2.80
2018-05-26T14:23:16.347Z,2.10
2018-05-26T14:25:45.702Z,2.20
2018-05-26T14:28:11.655Z,2.40
2018-05-26T14:30:40.882Z,2.80
2018-05-26T14:33:06.797Z,1.97
2018-05-26T14:35:34.073Z,1.73
2018-05-26T14:37:59.987Z,2.00
2018-05-26T14:40:29.109Z,2.10
2018-05-26T14:42:55.092Z,1.67
2018-05-26T14:45:24.566Z,1.77
2018-05-26T14:47:50.549Z,1.70
2018-05-26T14:50:16.488Z,1.90
2018-05-26T14:52:42.451Z,1.87
2018-05-26T14:55:08.386Z,2.17
2018-05-26T14:57:35.433Z,1.50
2018-05-26T15:00:01.400Z,1.90
2018-05-26T15:02:31.334Z,1.70
2018-05-26T15:04:57.254Z,1.80
2018-05-26T15:07:26.534Z,2.20
2018-05-26T15:09:52.445Z,1.93
2018-05-26T15:12:19.592Z,1.90
2018-05-26T15:14:45.834Z,2.23
2018-05-26T15:17:15.031Z,1.80
2018-05-26T15:19:40.966Z,2.10
2018-05-26T15:22:10.546Z,1.90
2018-05-26T15:24:36.512Z,1.80
2018-05-26T15:27:02.489Z,1.80
2018-05-26T15:29:28.418Z,2.03
2018-05-26T15:31:54.328Z,2.40
2018-05-26T15:34:21.086Z,2.07
2018-05-26T15:36:47.005Z,2.10
2018-05-26T15:39:15.172Z,2.43
2018-05-26T15:41:41.100Z,1.80
2018-05-26T15:44:10.762Z,2.20
2018-05-26T15:46:36.677Z,1.63
2018-05-26T15:49:04.679Z,2.03
2018-05-26T15:51:30.617Z,1.77
2018-05-26T15:54:00.178Z,2.30
2018-05-26T15:56:26.093Z,2.23
2018-05-26T15:58:53.887Z,1.90
2018-05-26T16:01:19.875Z,2.43
2018-05-26T16:03:45.858Z,2.37
2018-05-26T16:06:11.798Z,2.07
2018-05-26T16:08:37.749Z,1.90
2018-05-26T16:11:07.433Z,1.83
2018-05-26T16:13:33.374Z,2.20
2018-05-26T16:16:02.418Z,2.03
2018-05-26T16:18:28.367Z,1.70
2018-05-26T16:20:55.681Z,1.63
2018-05-26T16:23:21.627Z,2.03
2018-05-26T16:25:50.950Z,2.00
2018-05-26T16:28:16.851Z,2.10
2018-05-26T16:30:44.916Z,2.13
2018-05-26T16:33:10.889Z,1.73
2018-05-26T16:35:40.243Z,1.90
2018-05-26T16:38:06.219Z,2.47
2018-05-26T16:40:32.127Z,2.03
2018-05-26T16:42:58.060Z,2.70
2018-05-26T16:45:24.080Z,1.77
2018-05-26T16:47:51.755Z,2.87
2018-05-26T16:50:17.681Z,2.10
2018-05-26T16:52:46.855Z,2.53
2018-05-26T16:55:12.763Z,2.53
2018-05-26T16:57:42.171Z,2.17
2018-05-26T17:00:08.147Z,2.30
2018-05-26T17:02:49.431Z,2.33
2018-05-26T17:05:15.323Z,2.30
2018-05-26T17:07:41.246Z,2.20
2018-05-26T17:10:07.163Z,2.10
2018-05-26T17:12:33.095Z,1.97
2018-05-26T17:15:01.745Z,2.60
2018-05-26T17:17:27.692Z,1.93
2018-05-26T17:19:53.609Z,2.60
2018-05-26T17:22:19.546Z,1.90
2018-05-26T17:24:45.513Z,2.20
2018-05-26T17:27:11.435Z,2.20
2018-05-26T17:29:37.363Z,2.37
2018-05-26T17:32:03.312Z,2.67
2018-05-26T17:34:29.282Z,2.90
2018-05-26T17:36:55.273Z,2.57
2018-05-26T17:39:21.215Z,2.40
2018-05-26T17:41:47.124Z,2.20
2018-05-26T17:44:17.027Z,2.60
2018-05-26T17:46:42.988Z,2.40
2018-05-26T17:49:09.993Z,2.80
2018-05-26T17:51:35.922Z,2.40
2018-05-26T17:54:01.923Z,2.33
2018-05-26T17:56:27.909Z,2.20
2018-05-26T17:58:53.839Z,2.57
2018-05-26T18:01:22.927Z,2.57
2018-05-26T18:03:50.489Z,2.60
2018-05-26T18:06:16.402Z,2.53
2018-05-26T18:08:42.286Z,2.73
2018-05-26T18:11:11.102Z,2.60
2018-05-26T18:13:37.055Z,2.30
2018-05-26T18:16:05.736Z,2.47
2018-05-26T18:18:31.677Z,2.70
2018-05-26T18:21:00.586Z,2.17
2018-05-26T18:23:26.533Z,2.40
2018-05-26T18:25:55.307Z,2.83
2018-05-26T18:28:21.202Z,2.63
2018-05-26T18:30:47.152Z,2.50
2018-05-26T18:33:13.099Z,3.13
2018-05-26T18:35:39.019Z,2.60
2018-05-26T18:38:08.082Z,2.33
2018-05-26T18:40:34.038Z,2.50
2018-05-26T18:43:03.484Z,2.70
2018-05-26T18:45:29.419Z,2.97
2018-05-26T18:47:56.292Z,2.63
2018-05-26T18:50:22.261Z,3.47
2018-05-26T18:52:51.382Z,2.40
2018-05-26T18:55:17.287Z,3.10
2018-05-26T18:57:46.662Z,2.87
2018-05-26T19:00:12.573Z,2.90
2018-05-26T19:02:41.859Z,3.37
2018-05-26T19:05:07.791Z,2.90
2018-05-26T19:07:33.719Z,3.43
2018-05-26T19:09:59.682Z,3.30
2018-05-26T19:12:25.646Z,3.90
2018-05-26T19:14:52.380Z,3.93
2018-05-26T19:17:18.329Z,2.90
2018-05-26T19:19:47.834Z,4.23
2018-05-26T19:22:13.763Z,3.80
2018-05-26T19:24:42.106Z,2.90
2018-05-26T19:27:08.069Z,3.70
2018-05-26T19:29:37.582Z,3.33
2018-05-26T19:32:03.520Z,3.50
2018-05-26T19:34:32.937Z,3.83
2018-05-26T19:36:58.862Z,3.87
2018-05-26T19:39:26.191Z,3.97
2018-05-26T19:41:52.118Z,3.70
2018-05-26T19:44:18.051Z,3.10
2018-05-26T19:46:44.022Z,4.13
2018-05-26T19:49:09.944Z,4.60
2018-05-26T19:51:39.468Z,3.40
2018-05-26T19:54:05.392Z,4.30
2018-05-26T19:56:32.936Z,4.40
2018-05-26T19:58:58.897Z,3.77
2018-05-26T20:01:27.864Z,3.80
2018-05-26T20:03:53.816Z,3.60
2018-05-26T20:06:22.254Z,3.13
2018-05-26T20:08:48.213Z,3.60
2018-05-26T20:11:17.679Z,3.97
2018-05-26T20:13:43.627Z,3.60
2018-05-26T20:16:13.015Z,3.87
2018-05-26T20:18:39.007Z,3.47
2018-05-26T20:21:04.914Z,3.67
2018-05-26T20:23:30.871Z,4.00
2018-05-26T20:25:56.787Z,4.30
2018-05-26T20:28:22.827Z,3.60
2018-05-26T20:30:48.802Z,3.40
2018-05-26T20:33:17.904Z,3.60
2018-05-26T20:35:43.833Z,3.90
2018-05-26T20:38:13.401Z,3.63
2018-05-26T20:40:39.362Z,4.00
2018-05-26T20:43:08.354Z,3.93
2018-05-26T20:45:34.312Z,4.00
2018-05-26T20:48:03.592Z,3.60
2018-05-26T20:50:29.525Z,4.00
2018-05-26T20:52:56.766Z,4.53
2018-05-26T20:55:22.716Z,3.60
2018-05-26T20:57:48.639Z,3.83
2018-05-26T21:00:14.524Z,3.00
2018-05-26T21:02:40.439Z,3.60
2018-05-26T21:05:08.510Z,3.67
2018-05-26T21:07:34.451Z,3.70
2018-05-26T21:10:03.922Z,4.37
2018-05-26T21:12:29.827Z,4.30
2018-05-26T21:15:01.130Z,4.03
2018-05-26T21:17:27.010Z,4.13
2018-05-26T21:22:30.940Z,4.47
2018-05-26T21:24:56.872Z,4.37
2018-05-26T21:27:22.799Z,4.37
2018-05-26T21:29:48.751Z,4.50
2018-05-26T21:32:14.656Z,5.57
2018-05-26T21:34:40.566Z,4.40
2018-05-26T21:37:06.487Z,4.43
2018-05-26T21:39:32.428Z,4.47
2018-05-26T21:41:58.391Z,4.87
2018-05-26T21:44:24.299Z,5.27
2018-05-26T21:46:50.175Z,6.50
2018-05-26T21:49:16.096Z,5.47
2018-05-26T21:51:43.060Z,4.90
2018-05-26T21:54:09.040Z,5.10
2018-05-26T21:56:38.271Z,4.87
2018-05-26T21:59:04.233Z,5.63
2018-05-26T22:01:34.104Z,5.70
2018-05-26T22:04:00.054Z,6.00
2018-05-26T22:06:29.102Z,6.03
2018-05-26T22:08:55.005Z,5.63
2018-05-26T22:11:20.953Z,5.63
2018-05-26T22:13:46.893Z,6.30
2018-05-26T22:16:12.827Z,5.90
2018-05-26T22:18:39.639Z,5.23
2018-05-26T22:21:05.592Z,4.97
2018-05-26T22:23:34.030Z,6.53
2018-05-26T22:25:59.949Z,5.60
2018-05-26T22:28:29.100Z,5.70
2018-05-26T22:30:55.044Z,6.30
2018-05-26T22:33:23.050Z,5.90
2018-05-26T22:35:48.977Z,6.00
2018-05-26T22:38:17.715Z,5.27
2018-05-26T22:40:43.642Z,5.80
2018-05-26T22:43:12.959Z,6.90
2018-05-26T22:45:38.872Z,6.50
2018-05-26T22:48:04.793Z,6.63
2018-05-26T22:50:30.746Z,6.23
2018-05-26T22:52:56.664Z,6.00
2018-05-26T22:55:24.199Z,6.17
2018-05-26T22:57:50.110Z,7.00
2018-05-26T23:00:19.019Z,5.73
2018-05-26T23:02:44.992Z,6.10
2018-05-26T23:05:14.702Z,5.80
2018-05-26T23:07:40.627Z,5.57
2018-05-26T23:10:08.471Z,6.13
2018-05-26T23:12:34.427Z,6.20
2018-05-26T23:15:03.387Z,6.20
2018-05-26T23:17:29.321Z,5.67
2018-05-26T23:19:58.635Z,6.10
2018-05-26T23:22:24.554Z,5.70
2018-05-26T23:24:50.512Z,5.20
2018-05-26T23:27:16.472Z,5.20
2018-05-26T23:29:42.375Z,5.07
2018-05-26T23:32:09.931Z,5.70
2018-05-26T23:34:35.881Z,5.37
2018-05-26T23:37:05.765Z,5.10
2018-05-26T23:39:31.703Z,4.97
2018-05-26T23:42:00.839Z,5.70
2018-05-26T23:44:26.795Z,5.80
2018-05-26T23:46:53.940Z,6.07
2018-05-26T23:49:19.866Z,5.20
2018-05-26T23:51:49.223Z,5.47
2018-05-26T23:54:15.163Z,6.00
2018-05-26T23:56:43.398Z,6.50
2018-05-26T23:59:09.325Z,7.40
